createdAt,value
2022-09-13T00:01:58.922Z,97276.72
2022-09-13T00:04:25.635Z,97273.00
2022-09-13T00:06:52.193Z,97275.91
2022-09-13T00:09:18.697Z,97274.56
2022-09-13T00:11:45.234Z,97268.22
2022-09-13T00:14:13.108Z,97264.00
2022-09-13T00:16:39.658Z,97263.25
2022-09-13T00:19:06.218Z,97261.81
2022-09-13T00:21:32.816Z,97260.94
2022-09-13T00:23:59.334Z,97259.34
2022-09-13T00:26:27.840Z,97246.56
2022-09-13T00:28:56.497Z,97254.16
2022-09-13T00:31:26.105Z,97252.88
2022-09-13T00:33:53.001Z,97256.09
2022-09-13T00:36:19.912Z,97266.31
2022-09-13T00:38:46.562Z,97263.84
2022-09-13T00:41:15.065Z,97259.88
2022-09-13T00:43:45.400Z,97264.13
2022-09-13T00:46:16.271Z,97257.41
2022-09-13T00:48:46.008Z,97245.13
2022-09-13T00:51:13.604Z,97237.78
2022-09-13T00:53:44.278Z,97235.66
2022-09-13T00:56:15.113Z,97237.72
2022-09-13T00:58:45.246Z,97235.94
2022-09-13T01:01:14.447Z,97226.09
2022-09-13T01:03:42.810Z,97235.28
2022-09-13T01:06:14.651Z,97238.78
2022-09-13T01:08:45.458Z,97234.41
2022-09-13T01:11:20.699Z,97232.66
2022-09-13T01:13:47.928Z,97225.22
2022-09-13T01:16:14.545Z,97226.22
2022-09-13T01:18:41.099Z,97225.22
2022-09-13T01:21:42.874Z,97220.56
2022-09-13T01:24:23.451Z,97228.09
2022-09-13T01:27:23.728Z,97216.84
2022-09-13T01:30:10.947Z,97213.59
2022-09-13T01:32:51.023Z,97213.59
2022-09-13T01:35:28.889Z,97212.59
2022-09-13T01:38:02.512Z,97212.38
2022-09-13T01:40:43.824Z,97213.09
2022-09-13T01:43:22.625Z,97205.03
2022-09-13T01:45:56.042Z,97214.19
2022-09-13T01:48:30.070Z,97209.28
2022-09-13T01:51:04.147Z,97209.78
2022-09-13T01:53:35.915Z,97208.97
2022-09-13T01:56:10.611Z,97201.19
2022-09-13T01:58:41.827Z,97202.53
2022-09-13T02:01:15.119Z,97209.03
2022-09-13T02:03:47.921Z,97212.50
2022-09-13T02:06:20.286Z,97211.75
2022-09-13T02:08:51.068Z,97213.91
2022-09-13T02:11:18.918Z,97213.91
2022-09-13T02:13:49.325Z,97221.38
2022-09-13T02:16:26.421Z,97223.44
2022-09-13T02:18:57.079Z,97234.69
2022-09-13T02:21:28.674Z,97228.06
2022-09-13T02:24:00.650Z,97228.97
2022-09-13T02:26:29.135Z,97234.81
2022-09-13T02:29:00.158Z,97233.22
2022-09-13T02:31:33.693Z,97236.06
2022-09-13T02:34:04.640Z,97231.34
2022-09-13T02:36:35.530Z,97232.19
2022-09-13T02:39:04.709Z,97228.97
2022-09-13T02:41:37.336Z,97225.69
2022-09-13T02:44:11.112Z,97224.78
2022-09-13T02:47:09.466Z,97222.94
2022-09-13T02:49:47.791Z,97215.34
2022-09-13T02:52:23.517Z,97232.03
2022-09-13T02:54:57.328Z,97241.19
2022-09-13T02:57:29.799Z,97240.03
2022-09-13T02:59:56.341Z,97234.00
2022-09-13T03:02:33.017Z,97234.50
2022-09-13T03:05:00.985Z,97241.09
2022-09-13T03:07:28.307Z,97238.63
2022-09-13T03:10:00.558Z,97229.66
2022-09-13T03:12:43.947Z,97220.66
2022-09-13T03:15:19.653Z,97204.09
2022-09-13T03:18:00.301Z,97184.38
2022-09-13T03:20:40.885Z,97185.00
2022-09-13T03:23:21.997Z,97178.84
2022-09-13T03:26:08.072Z,97169.13
2022-09-13T03:28:43.374Z,97169.63
2022-09-13T03:31:21.100Z,97171.88
2022-09-13T03:33:56.589Z,97164.63
2022-09-13T03:36:33.087Z,97163.34
2022-09-13T03:39:11.907Z,97170.81
2022-09-13T03:41:46.554Z,97169.78
2022-09-13T03:44:16.734Z,97166.72
2022-09-13T03:46:46.242Z,97164.25
2022-09-13T03:49:15.936Z,97155.97
2022-09-13T03:51:45.108Z,97158.94
2022-09-13T03:54:19.132Z,97162.50
2022-09-13T03:57:07.816Z,97171.19
2022-09-13T03:59:34.590Z,97171.19
2022-09-13T04:02:01.103Z,97171.50
2022-09-13T04:04:28.986Z,97179.28
2022-09-13T04:06:55.494Z,97169.53
2022-09-13T04:09:22.023Z,97174.66
2022-09-13T04:11:48.668Z,97174.31
2022-09-13T04:14:15.188Z,97173.63
2022-09-13T04:16:42.226Z,97165.84
2022-09-13T04:19:08.789Z,97165.34
2022-09-13T04:21:36.637Z,97168.00
2022-09-13T04:24:03.345Z,97170.56
2022-09-13T04:26:29.839Z,97169.94
2022-09-13T04:28:56.359Z,97169.50
2022-09-13T04:31:22.932Z,97166.94
2022-09-13T04:33:49.600Z,97182.41
2022-09-13T04:36:16.092Z,97184.38
2022-09-13T04:38:46.369Z,97184.38
2022-09-13T04:41:12.867Z,97184.81
2022-09-13T04:43:39.403Z,97181.72
2022-09-13T04:46:05.916Z,97184.38
2022-09-13T04:48:32.469Z,97186.72
2022-09-13T04:51:02.004Z,97182.97
2022-09-13T04:53:28.503Z,97176.19
2022-09-13T04:56:00.437Z,97175.69
2022-09-13T04:58:26.760Z,97185.81
2022-09-13T05:00:53.348Z,97185.63
2022-09-13T05:03:19.905Z,97191.44
2022-09-13T05:05:46.391Z,97204.63
2022-09-13T05:08:12.905Z,97205.66
2022-09-13T05:10:39.409Z,97205.47
2022-09-13T05:13:07.262Z,97213.34
2022-09-13T05:15:33.761Z,97204.44
2022-09-13T05:18:00.274Z,97192.03
2022-09-13T05:20:26.742Z,97197.66
2022-09-13T05:22:53.235Z,97200.97
2022-09-13T05:25:22.956Z,97184.69
2022-09-13T05:27:51.941Z,97186.81
2022-09-13T05:30:19.795Z,97183.03
2022-09-13T05:32:46.295Z,97187.91
2022-09-13T05:35:12.849Z,97178.38
2022-09-13T05:37:39.412Z,97178.59
2022-09-13T05:40:11.773Z,97176.16
2022-09-13T05:42:38.909Z,97192.72
2022-09-13T05:45:06.704Z,97193.19
2022-09-13T05:47:34.505Z,97197.81
2022-09-13T05:50:39.518Z,97199.69
2022-09-13T05:52:52.035Z,97194.16
2022-09-13T05:55:18.528Z,97194.03
2022-09-13T05:57:45.006Z,97207.63
2022-09-13T06:00:12.460Z,97195.56
2022-09-13T06:02:40.985Z,97201.16
2022-09-13T06:05:08.400Z,97204.22
2022-09-13T06:07:34.856Z,97214.16
2022-09-13T06:10:01.343Z,97207.56
2022-09-13T06:12:27.863Z,97205.22
2022-09-13T06:14:54.329Z,97201.72
2022-09-13T06:17:20.826Z,97195.75
2022-09-13T06:19:48.649Z,97201.72
2022-09-13T06:22:15.112Z,97199.56
2022-09-13T06:24:41.595Z,97190.00
2022-09-13T06:27:08.107Z,97180.50
2022-09-13T06:29:34.602Z,97172.59
2022-09-13T06:32:01.108Z,97167.16
2022-09-13T06:34:31.155Z,97165.44
2022-09-13T06:36:59.331Z,97163.34
2022-09-13T06:39:25.819Z,97157.00
2022-09-13T06:41:52.299Z,97159.44
2022-09-13T06:44:18.797Z,97164.81
2022-09-13T06:46:45.313Z,97154.91
2022-09-13T06:49:11.822Z,97171.19
2022-09-13T06:51:38.285Z,97176.91
2022-09-13T06:54:06.155Z,97184.38
2022-09-13T06:56:34.251Z,97178.94
2022-09-13T06:59:02.820Z,97173.22
2022-09-13T07:01:31.009Z,97175.50
2022-09-13T07:04:01.003Z,97188.88
2022-09-13T07:06:29.935Z,97188.19
2022-09-13T07:08:58.016Z,97179.28
2022-09-13T07:11:29.102Z,97175.56
2022-09-13T07:13:57.363Z,97167.72
2022-09-13T07:16:25.976Z,97163.47
2022-09-13T07:18:53.183Z,97169.47
2022-09-13T07:21:20.054Z,97162.91
2022-09-13T07:23:46.599Z,97184.53
2022-09-13T07:26:13.354Z,97182.69
2022-09-13T07:28:43.291Z,97181.75
2022-09-13T07:31:12.358Z,97179.22
2022-09-13T07:33:40.058Z,97182.81
2022-09-13T07:36:07.981Z,97178.25
2022-09-13T07:38:35.815Z,97187.50
2022-09-13T07:41:03.373Z,97189.84
2022-09-13T07:43:29.882Z,97185.94
2022-09-13T07:45:59.197Z,97179.19
2022-09-13T07:48:30.469Z,97181.06
2022-09-13T07:51:01.492Z,97179.66
2022-09-13T07:53:28.413Z,97178.50
2022-09-13T07:55:59.498Z,97171.66
2022-09-13T07:58:26.002Z,97172.47
2022-09-13T08:00:52.528Z,97175.34
2022-09-13T08:03:20.382Z,97179.69
2022-09-13T08:05:46.922Z,97181.41
2022-09-13T08:08:13.424Z,97195.22
2022-09-13T08:10:40.023Z,97191.28
2022-09-13T08:13:06.570Z,97191.84
2022-09-13T08:15:33.579Z,97193.59
2022-09-13T08:18:00.152Z,97202.56
2022-09-13T08:20:28.188Z,97195.25
2022-09-13T08:22:55.119Z,97194.75
2022-09-13T08:25:21.693Z,97194.94
2022-09-13T08:27:48.183Z,97192.59
2022-09-13T08:30:14.909Z,97188.66
2022-09-13T08:32:41.413Z,97190.06
2022-09-13T08:35:08.456Z,97175.59
2022-09-13T08:37:36.336Z,97174.94
2022-09-13T08:40:03.444Z,97172.84
2022-09-13T08:42:50.765Z,97165.56
2022-09-13T08:45:17.596Z,97163.31
2022-09-13T08:47:50.414Z,97165.03
2022-09-13T08:50:21.390Z,97158.41
2022-09-13T08:52:58.544Z,97163.88
2022-09-13T08:55:36.171Z,97162.47
2022-09-13T08:58:12.445Z,97166.63
2022-09-13T09:00:40.964Z,97162.63
2022-09-13T09:03:19.527Z,97161.91
2022-09-13T09:05:48.232Z,97149.75
2022-09-13T09:08:29.834Z,97140.97
2022-09-13T09:10:59.031Z,97139.78
2022-09-13T09:13:29.566Z,97143.84
2022-09-13T09:16:00.704Z,97148.91
2022-09-13T09:18:30.922Z,97152.44
2022-09-13T09:20:59.437Z,97153.63
2022-09-13T09:23:31.878Z,97150.63
2022-09-13T09:26:14.568Z,97156.97
2022-09-13T09:28:41.135Z,97159.69
2022-09-13T09:31:12.891Z,97171.63
2022-09-13T09:33:55.747Z,97169.81
2022-09-13T09:36:31.263Z,97164.41
2022-09-13T09:38:59.163Z,97167.41
2022-09-13T09:41:30.127Z,97159.81
2022-09-13T09:44:06.103Z,97168.56
2022-09-13T09:46:37.326Z,97158.16
2022-09-13T09:49:13.916Z,97157.94
2022-09-13T09:51:40.481Z,97145.16
2022-09-13T09:54:11.499Z,97147.84
2022-09-13T09:56:53.321Z,97129.75
2022-09-13T09:59:26.835Z,97129.47
2022-09-13T10:01:53.462Z,97130.91
2022-09-13T10:04:22.573Z,97125.00
2022-09-13T10:06:49.698Z,97126.34
2022-09-13T10:09:19.845Z,97120.38
2022-09-13T10:11:49.924Z,97113.66
2022-09-13T10:14:37.911Z,97116.94
2022-09-13T10:17:13.536Z,97108.72
2022-09-13T10:19:40.063Z,97118.47
2022-09-13T10:22:11.284Z,97101.44
2022-09-13T10:24:39.572Z,97108.53
2022-09-13T10:27:20.358Z,97112.28
2022-09-13T10:29:49.010Z,97118.16
2022-09-13T10:32:15.830Z,97112.41
2022-09-13T10:34:45.126Z,97120.22
2022-09-13T10:37:16.003Z,97113.38
2022-09-13T10:39:55.653Z,97108.53
2022-09-13T10:42:25.158Z,97112.88
2022-09-13T10:44:55.313Z,97120.38
2022-09-13T10:47:25.524Z,97129.44
2022-09-13T10:49:54.721Z,97131.72
2022-09-13T10:52:30.342Z,97130.56
2022-09-13T10:55:23.428Z,97136.59
2022-09-13T10:57:51.699Z,97123.94
2022-09-13T11:00:20.343Z,97116.69
2022-09-13T11:03:05.993Z,97128.66
2022-09-13T11:05:39.595Z,97110.91
2022-09-13T11:08:18.822Z,97110.00
2022-09-13T11:10:58.545Z,97106.69
2022-09-13T11:13:34.631Z,97102.69
2022-09-13T11:16:15.719Z,97102.94
2022-09-13T11:18:59.280Z,97099.88
2022-09-13T11:21:40.126Z,97086.50
2022-09-13T11:24:24.167Z,97093.34
2022-09-13T11:27:00.181Z,97082.22
2022-09-13T11:29:40.122Z,97077.91
2022-09-13T11:32:20.966Z,97068.41
2022-09-13T11:35:02.527Z,97076.38
2022-09-13T11:37:42.214Z,97082.56
2022-09-13T11:40:28.375Z,97088.78
2022-09-13T11:43:08.770Z,97091.53
2022-09-13T11:45:42.530Z,97078.84
2022-09-13T11:48:30.446Z,97084.00
2022-09-13T11:51:06.435Z,97072.50
2022-09-13T11:53:57.470Z,97068.00
2022-09-13T11:56:29.246Z,97069.25
2022-09-13T11:59:00.904Z,97073.66
2022-09-13T12:01:33.903Z,97078.44
2022-09-13T12:04:03.893Z,97074.88
2022-09-13T12:06:35.492Z,97074.97
2022-09-13T12:09:07.333Z,97075.44
2022-09-13T12:11:34.736Z,97078.78
2022-09-13T12:14:05.049Z,97076.63
2022-09-13T12:16:36.429Z,97074.28
2022-09-13T12:19:07.280Z,97061.50
2022-09-13T12:21:38.011Z,97056.06
2022-09-13T12:24:12.962Z,97056.25
2022-09-13T12:26:44.814Z,97052.00
2022-09-13T12:29:17.960Z,97054.81
2022-09-13T12:31:44.814Z,97052.88
2022-09-13T12:34:20.085Z,97051.53
2022-09-13T12:37:09.910Z,97047.19
2022-09-13T12:40:11.700Z,97048.28
2022-09-13T12:43:06.599Z,97051.22
2022-09-13T12:45:47.176Z,97062.28
2022-09-13T12:48:38.818Z,97055.59
2022-09-13T12:51:15.311Z,97055.06
2022-09-13T12:54:30.397Z,97061.25
2022-09-13T12:57:10.569Z,97065.88
2022-09-13T12:59:54.874Z,97060.13
2022-09-13T13:02:30.896Z,97071.22
2022-09-13T13:05:01.208Z,97070.63
2022-09-13T13:07:30.418Z,97064.56
2022-09-13T13:09:57.949Z,97060.44
2022-09-13T13:12:30.920Z,97053.94
2022-09-13T13:14:59.026Z,97046.41
2022-09-13T13:17:44.061Z,97047.78
2022-09-13T13:20:45.846Z,97040.69
2022-09-13T13:23:19.745Z,97047.59
2022-09-13T13:26:07.817Z,97039.06
2022-09-13T13:29:17.720Z,97034.59
2022-09-13T13:32:09.214Z,97040.56
2022-09-13T13:34:43.586Z,97022.66
2022-09-13T13:37:33.905Z,97017.78
2022-09-13T13:43:11.600Z,97019.81
2022-09-13T13:45:38.197Z,97022.13
2022-09-13T13:48:11.507Z,97017.34
2022-09-13T13:51:17.747Z,97018.22
2022-09-13T13:53:48.483Z,97016.91
2022-09-13T13:56:22.317Z,97017.66
2022-09-13T13:58:57.324Z,97014.38
2022-09-13T14:01:26.739Z,97007.78
2022-09-13T14:04:27.687Z,97009.28
2022-09-13T14:07:06.530Z,96998.78
2022-09-13T14:09:47.186Z,97008.25
2022-09-13T14:12:44.556Z,97010.97
2022-09-13T14:15:26.467Z,97012.22
2022-09-13T14:18:16.869Z,97007.06
2022-09-13T14:20:58.187Z,97004.81
2022-09-13T14:23:26.073Z,97004.50
2022-09-13T14:25:55.947Z,96996.03
2022-09-13T14:28:23.338Z,96986.50
2022-09-13T14:30:54.458Z,96987.69
2022-09-13T14:33:25.985Z,96992.84
2022-09-13T14:36:02.197Z,97002.25
2022-09-13T14:38:31.863Z,96998.47
2022-09-13T14:41:00.174Z,96993.59
2022-09-13T14:43:28.493Z,96986.00
2022-09-13T14:46:01.436Z,96988.88
2022-09-13T14:48:36.238Z,96988.56
2022-09-13T14:51:08.665Z,96989.09
2022-09-13T14:53:36.792Z,96986.75
2022-09-13T14:56:06.978Z,96986.25
2022-09-13T14:58:42.238Z,96995.16
2022-09-13T15:01:11.430Z,96993.50
2022-09-13T15:03:41.501Z,96977.53
2022-09-13T15:06:19.338Z,96968.69
2022-09-13T15:08:48.663Z,96976.25
2022-09-13T15:11:26.607Z,96980.00
2022-09-13T15:14:02.046Z,96976.56
2022-09-13T15:16:30.581Z,96968.78
2022-09-13T15:19:17.180Z,96968.94
2022-09-13T15:21:43.810Z,96970.13
2022-09-13T15:24:21.522Z,96958.06
2022-09-13T15:26:48.073Z,96959.06
2022-09-13T15:29:19.250Z,96956.13
2022-09-13T15:31:45.816Z,96956.88
2022-09-13T15:34:19.822Z,96952.63
2022-09-13T15:36:47.563Z,96950.28
2022-09-13T15:39:17.743Z,96946.75
2022-09-13T15:41:52.458Z,96945.66
2022-09-13T15:44:19.092Z,96948.00
2022-09-13T15:46:48.582Z,96939.72
2022-09-13T15:49:16.819Z,96941.25
2022-09-13T15:51:44.379Z,96944.97
2022-09-13T15:54:12.521Z,96938.13
2022-09-13T15:56:43.692Z,96932.38
2022-09-13T15:59:13.445Z,96932.78
2022-09-13T16:01:40.439Z,96942.44
2022-09-13T16:04:07.076Z,96944.47
2022-09-13T16:06:33.907Z,96942.69
2022-09-13T16:09:00.484Z,96939.94
2022-09-13T16:11:27.082Z,96944.38
2022-09-13T16:13:54.948Z,96932.22
2022-09-13T16:16:21.541Z,96929.47
2022-09-13T16:18:48.128Z,96936.84
2022-09-13T16:21:14.672Z,96942.91
2022-09-13T16:23:41.209Z,96927.59
2022-09-13T16:26:07.751Z,96932.75
2022-09-13T16:28:34.272Z,96921.53
2022-09-13T16:31:02.237Z,96913.59
2022-09-13T16:33:28.827Z,96920.00
2022-09-13T16:35:58.048Z,96914.69
2022-09-13T16:38:28.076Z,96912.69
2022-09-13T16:40:54.604Z,96914.53
2022-09-13T16:43:22.143Z,96933.22
2022-09-13T16:45:48.709Z,96930.06
2022-09-13T16:48:16.666Z,96930.44
2022-09-13T16:50:43.172Z,96929.13
2022-09-13T16:53:09.705Z,96927.50
2022-09-13T16:55:36.429Z,96930.63
2022-09-13T16:58:03.103Z,96926.56
2022-09-13T17:00:29.670Z,96920.81
2022-09-13T17:02:56.367Z,96914.78
2022-09-13T17:05:25.112Z,96926.28
2022-09-13T17:07:52.752Z,96919.00
2022-09-13T17:10:20.488Z,96919.78
2022-09-13T17:12:47.079Z,96922.91
2022-09-13T17:15:13.905Z,96917.97
2022-09-13T17:17:40.439Z,96909.16
2022-09-13T17:20:09.447Z,96910.59
2022-09-13T17:22:37.432Z,96908.53
2022-09-13T17:25:05.092Z,96914.88
2022-09-13T17:27:31.626Z,96914.34
2022-09-13T17:29:58.222Z,96913.06
2022-09-13T17:32:24.798Z,96919.06
2022-09-13T17:34:51.361Z,96913.81
2022-09-13T17:37:17.877Z,96914.53
2022-09-13T17:39:46.124Z,96908.16
2022-09-13T17:42:12.769Z,96907.69
2022-09-13T17:44:39.369Z,96901.59
2022-09-13T17:47:06.199Z,96895.13
2022-09-13T17:49:32.730Z,96904.59
2022-09-13T17:51:59.236Z,96911.13
2022-09-13T17:54:25.781Z,96907.97
2022-09-13T17:56:53.640Z,96912.78
2022-09-13T17:59:21.852Z,96906.00
2022-09-13T18:01:49.933Z,96907.19
2022-09-13T18:04:19.990Z,96906.19
2022-09-13T18:06:46.837Z,96910.81
2022-09-13T18:09:14.551Z,96911.91
2022-09-13T18:11:41.311Z,96903.00
2022-09-13T18:14:11.542Z,96894.63
2022-09-13T18:16:38.062Z,96901.66
2022-09-13T18:19:04.705Z,96890.41
2022-09-13T18:21:31.255Z,96886.19
2022-09-13T18:23:59.460Z,96884.47
2022-09-13T18:26:27.578Z,96879.53
2022-09-13T18:28:55.411Z,96889.97
2022-09-13T18:31:24.679Z,96880.81
2022-09-13T18:33:55.250Z,96880.69
2022-09-13T18:36:21.903Z,96872.03
2022-09-13T18:38:49.281Z,96875.66
2022-09-13T18:41:18.672Z,96878.34
2022-09-13T18:43:46.441Z,96870.34
2022-09-13T18:46:14.666Z,96875.84
2022-09-13T18:48:45.615Z,96867.00
2022-09-13T18:51:15.338Z,96874.91
2022-09-13T18:53:42.399Z,96868.53
2022-09-13T18:56:11.112Z,96873.31
2022-09-13T18:58:39.588Z,96865.38
2022-09-13T19:01:08.332Z,96867.09
2022-09-13T19:03:35.997Z,96870.34
2022-09-13T19:06:12.044Z,96871.84
2022-09-13T19:08:38.731Z,96885.81
2022-09-13T19:11:06.259Z,96881.84
2022-09-13T19:13:33.488Z,96871.78
2022-09-13T19:16:01.096Z,96867.81
2022-09-13T19:18:28.107Z,96862.22
2022-09-13T19:21:01.398Z,96865.38
2022-09-13T19:23:48.891Z,96877.63
2022-09-13T19:26:17.912Z,96883.59
2022-09-13T19:28:46.436Z,96877.91
2022-09-13T19:31:14.173Z,96877.09
2022-09-13T19:33:41.548Z,96881.88
2022-09-13T19:36:11.156Z,96888.25
2022-09-13T19:38:39.492Z,96885.84
2022-09-13T19:41:08.204Z,96881.06
2022-09-13T19:43:36.501Z,96885.84
2022-09-13T19:46:05.043Z,96886.66
2022-09-13T19:48:38.637Z,96880.53
2022-09-13T19:51:08.366Z,96876.09
2022-09-13T19:53:55.860Z,96877.34
2022-09-13T19:56:26.463Z,96886.38
2022-09-13T19:58:53.546Z,96877.44
2022-09-13T20:01:22.262Z,96882.22
2022-09-13T20:03:54.158Z,96872.38
2022-09-13T20:06:21.565Z,96868.06
2022-09-13T20:08:48.065Z,96857.47
2022-09-13T20:11:14.898Z,96870.56
2022-09-13T20:13:44.336Z,96877.25
2022-09-13T20:16:17.947Z,96871.28
2022-09-13T20:18:45.044Z,96877.78
2022-09-13T20:21:12.607Z,96886.31
2022-09-13T20:23:41.886Z,96890.56
2022-09-13T20:26:14.399Z,96891.34
2022-09-13T20:28:40.936Z,96888.66
2022-09-13T20:31:09.861Z,96887.84
2022-09-13T20:33:36.567Z,96884.50
2022-09-13T20:36:03.712Z,96879.44
2022-09-13T20:38:30.215Z,96869.72
2022-09-13T20:41:02.416Z,96860.78
2022-09-13T20:43:28.971Z,96868.69
2022-09-13T20:45:55.952Z,96861.41
2022-09-13T20:48:24.254Z,96868.00
2022-09-13T20:50:56.372Z,96870.13
2022-09-13T20:53:22.889Z,96869.78
2022-09-13T20:55:49.411Z,96879.75
2022-09-13T20:58:15.915Z,96876.97
2022-09-13T21:00:42.439Z,96864.91
2022-09-13T21:03:08.967Z,96859.47
2022-09-13T21:05:37.815Z,96863.88
2022-09-13T21:08:04.540Z,96864.81
2022-09-13T21:10:31.057Z,96862.44
2022-09-13T21:12:57.578Z,96857.94
2022-09-13T21:15:24.082Z,96856.81
2022-09-13T21:17:50.605Z,96854.16
2022-09-13T21:20:17.114Z,96863.22
2022-09-13T21:22:44.999Z,96867.50
2022-09-13T21:25:11.527Z,96853.81
2022-09-13T21:27:38.071Z,96861.25
2022-09-13T21:30:05.645Z,96856.63
2022-09-13T21:32:32.223Z,96861.72
2022-09-13T21:34:58.735Z,96856.97
2022-09-13T21:37:25.268Z,96860.56
2022-09-13T21:39:53.235Z,96853.00
2022-09-13T21:42:19.779Z,96853.84
2022-09-13T21:44:46.271Z,96854.09
2022-09-13T21:47:12.780Z,96842.84
2022-09-13T21:49:39.321Z,96849.22
2022-09-13T21:52:05.855Z,96852.22
2022-09-13T21:54:32.363Z,96851.75
2022-09-13T21:57:00.241Z,96855.25
2022-09-13T21:59:26.797Z,96858.41
2022-09-13T22:01:53.619Z,96850.28
2022-09-13T22:04:21.762Z,96843.31
2022-09-13T22:06:49.933Z,96849.59
2022-09-13T22:09:16.488Z,96844.56
2022-09-13T22:11:44.819Z,96837.19
2022-09-13T22:14:14.446Z,96841.09
2022-09-13T22:16:42.659Z,96843.19
2022-09-13T22:19:12.222Z,96832.06
2022-09-13T22:21:41.233Z,96836.47
2022-09-13T22:24:09.869Z,96829.16
2022-09-13T22:26:38.954Z,96832.19
2022-09-13T22:29:06.218Z,96836.59
2022-09-13T22:31:36.367Z,96841.69
2022-09-13T22:34:03.855Z,96838.09
2022-09-13T22:36:30.661Z,96834.72
2022-09-13T22:38:57.606Z,96841.09
2022-09-13T22:41:26.417Z,96838.78
2022-09-13T22:43:53.685Z,96837.19
2022-09-13T22:46:21.806Z,96843.56
2022-09-13T22:48:50.163Z,96847.50
2022-09-13T22:51:18.207Z,96845.16
2022-09-13T22:53:46.786Z,96850.88
2022-09-13T22:56:15.144Z,96846.91
2022-09-13T22:58:42.468Z,96845.31
2022-09-13T23:01:10.957Z,96844.25
2022-09-13T23:03:38.815Z,96852.22
2022-09-13T23:06:07.439Z,96853.50
2022-09-13T23:08:34.884Z,96848.09
2022-09-13T23:11:08.897Z,96861.16
2022-09-13T23:13:35.710Z,96849.69
2022-09-13T23:16:02.303Z,96851.66
2022-09-13T23:18:28.823Z,96850.03
2022-09-13T23:20:56.096Z,96845.63
2022-09-13T23:23:24.198Z,96840.19
2022-09-13T23:25:51.104Z,96835.78
2022-09-13T23:28:17.662Z,96839.75
2022-09-13T23:30:44.180Z,96831.50
2022-09-13T23:33:10.730Z,96829.03
2022-09-13T23:35:37.304Z,96820.59
2022-09-13T23:38:04.014Z,96822.00
2022-09-13T23:40:32.074Z,96826.06
2022-09-13T23:42:58.686Z,96821.41
2022-09-13T23:45:25.271Z,96814.69
2022-09-13T23:47:51.905Z,96813.06
2022-09-13T23:50:18.443Z,96809.94
2022-09-13T23:52:44.970Z,96805.06
2022-09-13T23:55:11.495Z,96795.28
2022-09-13T23:57:39.434Z,96799.72
